Página principal
METAR-TAF:

METAR-TAF

Aeroportos :

Aeroporto Internacional Tan Son Nhat

Cidade de Ho Chi Minh, Vietname

latitude: 10-49N, longitude: 106-40E, altura: 19 m

Observação actual do tempo

O boletim foi feito há 37 minutos, às 12:30 UTC
Vento 4 kt de sul, variando entre su-sudeste e sudoeste
Temperatura 28°C
Humidade 79%
Pressão 1012 hPa
Visibilidade 10 km ou mais
Poucas nuvensa uma altura de 2000 ft
Nuvens dispersasa uma altura de 5000 ft

METAR: VVTS 181230Z 19004KT 160V230 9999 FEW020 SCT050 28/24 Q1012 NOSIG

Hora: 20:07 (13:07 UTC)

Previsão

O boletim foi feito há 2 horas e 7 minutos, às 11:00 UTC
Previsão válida de 18 às 12 UTC a 19 às 18 UTC
Vento 7 kt de su-sudeste
Visibilidade 10 km ou mais
Nuvens dispersasa uma altura de 1700 ft
Nuvens dispersasa uma altura de 4000 ft
Tornando-se
de 18 às 14 UTC a 18 às 15 UTC
Vento 5 kt de es-nordeste

TAF: VVTS 181100Z 1812/1918 16007KT 9999 SCT017 SCT040 BECMG 1814/1815 06005KT

Observações e previsões do tempo de mais de 4000 aeroportos (mensagens METAR e TAF).

As estações disponíveis são os pontos amarelos e vermelhos sobre o mapa.

Mova o rato sobre o mapa para ver o nome da estação.

Depois clique no ponto para visualizar as observações e previsões meteorológicas.

Para alterar o mapa : clique nos botões verdes com uma cruz preta para aumentar o zoom; no botão verde com uma pitada de zoom; ou nas setas verdes para mapas adjacentes.


METAR-TAF: